sensor_id;sensor_type;location;lat;lon;timestamp;P1;durP1;ratioP1;P2;durP2;ratioP2
73331;SDS011;61560;33.718;73.040;2023-04-25T00:00:17;4.30;;;3.17;;
73331;SDS011;61560;33.718;73.040;2023-04-25T00:02:45;6.10;;;3.10;;
73331;SDS011;61560;33.718;73.040;2023-04-25T00:05:12;5.40;;;3.05;;
73331;SDS011;61560;33.718;73.040;2023-04-25T00:07:41;13.77;;;4.03;;
73331;SDS011;61560;33.718;73.040;2023-04-25T00:10:11;5.78;;;3.10;;
73331;SDS011;61560;33.718;73.040;2023-04-25T00:12:39;6.10;;;3.42;;
73331;SDS011;61560;33.718;73.040;2023-04-25T00:15:07;7.10;;;3.42;;
73331;SDS011;61560;33.718;73.040;2023-04-25T00:17:35;5.60;;;2.92;;
73331;SDS011;61560;33.718;73.040;2023-04-25T00:20:04;5.47;;;3.03;;
73331;SDS011;61560;33.718;73.040;2023-04-25T00:22:32;8.48;;;3.70;;
73331;SDS011;61560;33.718;73.040;2023-04-25T00:25:00;9.80;;;3.08;;
73331;SDS011;61560;33.718;73.040;2023-04-25T00:27:27;8.68;;;3.15;;
73331;SDS011;61560;33.718;73.040;2023-04-25T00:29:54;8.43;;;3.40;;
73331;SDS011;61560;33.718;73.040;2023-04-25T00:32:21;7.88;;;3.53;;
73331;SDS011;61560;33.718;73.040;2023-04-25T00:34:48;19.88;;;4.15;;
73331;SDS011;61560;33.718;73.040;2023-04-25T00:37:22;6.47;;;3.53;;
73331;SDS011;61560;33.718;73.040;2023-04-25T00:39:49;8.95;;;3.78;;
73331;SDS011;61560;33.718;73.040;2023-04-25T00:42:19;4.68;;;3.10;;
73331;SDS011;61560;33.718;73.040;2023-04-25T00:44:46;8.48;;;3.75;;
73331;SDS011;61560;33.718;73.040;2023-04-25T00:47:15;5.82;;;3.88;;
73331;SDS011;61560;33.718;73.040;2023-04-25T00:49:42;6.40;;;3.38;;
73331;SDS011;61560;33.718;73.040;2023-04-25T00:52:11;5.45;;;3.33;;
73331;SDS011;61560;33.718;73.040;2023-04-25T00:54:38;8.95;;;3.90;;
73331;SDS011;61560;33.718;73.040;2023-04-25T00:57:09;6.25;;;3.28;;
73331;SDS011;61560;33.718;73.040;2023-04-25T00:59:36;5.63;;;3.88;;
73331;SDS011;61560;33.718;73.040;2023-04-25T01:02:04;9.57;;;4.28;;
73331;SDS011;61560;33.718;73.040;2023-04-25T01:04:31;6.20;;;3.42;;
73331;SDS011;61560;33.718;73.040;2023-04-25T01:06:58;15.93;;;4.13;;
73331;SDS011;61560;33.718;73.040;2023-04-25T01:09:26;12.27;;;4.60;;
73331;SDS011;61560;33.718;73.040;2023-04-25T01:11:53;6.13;;;3.92;;
73331;SDS011;61560;33.718;73.040;2023-04-25T01:14:20;11.05;;;5.15;;
73331;SDS011;61560;33.718;73.040;2023-04-25T01:16:48;10.73;;;4.93;;
73331;SDS011;61560;33.718;73.040;2023-04-25T01:19:16;8.57;;;4.55;;
73331;SDS011;61560;33.718;73.040;2023-04-25T01:21:45;10.77;;;5.00;;
73331;SDS011;61560;33.718;73.040;2023-04-25T01:24:13;12.13;;;5.22;;
73331;SDS011;61560;33.718;73.040;2023-04-25T01:26:41;8.70;;;4.20;;
73331;SDS011;61560;33.718;73.040;2023-04-25T01:29:20;9.00;;;4.60;;
73331;SDS011;61560;33.718;73.040;2023-04-25T01:31:48;11.00;;;4.70;;
73331;SDS011;61560;33.718;73.040;2023-04-25T01:34:16;8.23;;;3.97;;
73331;SDS011;61560;33.718;73.040;2023-04-25T01:36:43;10.07;;;4.68;;
73331;SDS011;61560;33.718;73.040;2023-04-25T01:39:11;12.82;;;4.30;;
73331;SDS011;61560;33.718;73.040;2023-04-25T01:41:38;7.30;;;3.90;;
73331;SDS011;61560;33.718;73.040;2023-04-25T01:44:05;9.10;;;4.00;;
73331;SDS011;61560;33.718;73.040;2023-04-25T01:46:34;4.20;;;3.20;;
73331;SDS011;61560;33.718;73.040;2023-04-25T01:49:01;11.25;;;3.42;;
73331;SDS011;61560;33.718;73.040;2023-04-25T01:51:29;7.03;;;4.35;;
73331;SDS011;61560;33.718;73.040;2023-04-25T01:53:57;11.52;;;5.22;;
73331;SDS011;61560;33.718;73.040;2023-04-25T01:56:29;7.18;;;4.22;;
73331;SDS011;61560;33.718;73.040;2023-04-25T01:58:57;10.13;;;4.38;;
73331;SDS011;61560;33.718;73.040;2023-04-25T02:01:40;5.78;;;3.80;;
73331;SDS011;61560;33.718;73.040;2023-04-25T02:04:19;6.75;;;4.10;;
73331;SDS011;61560;33.718;73.040;2023-04-25T02:06:48;5.80;;;4.05;;
73331;SDS011;61560;33.718;73.040;2023-04-25T02:09:15;6.90;;;3.90;;
73331;SDS011;61560;33.718;73.040;2023-04-25T02:11:49;8.18;;;4.90;;
73331;SDS011;61560;33.718;73.040;2023-04-25T02:14:51;7.50;;;4.55;;
73331;SDS011;61560;33.718;73.040;2023-04-25T02:17:38;8.32;;;4.32;;
73331;SDS011;61560;33.718;73.040;2023-04-25T02:20:05;9.20;;;4.63;;
73331;SDS011;61560;33.718;73.040;2023-04-25T02:22:33;9.85;;;4.70;;
73331;SDS011;61560;33.718;73.040;2023-04-25T02:25:06;8.50;;;4.05;;
73331;SDS011;61560;33.718;73.040;2023-04-25T02:27:33;6.50;;;4.28;;
73331;SDS011;61560;33.718;73.040;2023-04-25T02:30:00;7.63;;;4.40;;
73331;SDS011;61560;33.718;73.040;2023-04-25T02:32:28;10.10;;;4.47;;
73331;SDS011;61560;33.718;73.040;2023-04-25T02:34:55;9.20;;;4.90;;
73331;SDS011;61560;33.718;73.040;2023-04-25T02:37:26;17.77;;;7.07;;
73331;SDS011;61560;33.718;73.040;2023-04-25T02:39:52;22.58;;;8.85;;
73331;SDS011;61560;33.718;73.040;2023-04-25T02:42:22;13.82;;;7.30;;
73331;SDS011;61560;33.718;73.040;2023-04-25T02:44:49;13.68;;;7.88;;
73331;SDS011;61560;33.718;73.040;2023-04-25T02:47:17;27.33;;;9.15;;
73331;SDS011;61560;33.718;73.040;2023-04-25T02:49:44;22.73;;;8.90;;
73331;SDS011;61560;33.718;73.040;2023-04-25T02:52:12;22.80;;;9.43;;
73331;SDS011;61560;33.718;73.040;2023-04-25T02:54:42;19.98;;;9.20;;
73331;SDS011;61560;33.718;73.040;2023-04-25T02:57:10;21.25;;;9.07;;
73331;SDS011;61560;33.718;73.040;2023-04-25T02:59:37;12.45;;;6.13;;
73331;SDS011;61560;33.718;73.040;2023-04-25T03:02:05;19.45;;;8.00;;
73331;SDS011;61560;33.718;73.040;2023-04-25T03:04:32;22.42;;;8.32;;
73331;SDS011;61560;33.718;73.040;2023-04-25T03:06:59;13.40;;;7.18;;
73331;SDS011;61560;33.718;73.040;2023-04-25T03:09:26;9.68;;;6.28;;
73331;SDS011;61560;33.718;73.040;2023-04-25T03:11:54;15.52;;;7.05;;
73331;SDS011;61560;33.718;73.040;2023-04-25T03:14:21;16.25;;;6.82;;
73331;SDS011;61560;33.718;73.040;2023-04-25T03:16:48;12.98;;;6.53;;
73331;SDS011;61560;33.718;73.040;2023-04-25T03:19:16;12.68;;;6.38;;
73331;SDS011;61560;33.718;73.040;2023-04-25T03:21:44;10.98;;;5.93;;
73331;SDS011;61560;33.718;73.040;2023-04-25T03:24:12;13.23;;;5.03;;
73331;SDS011;61560;33.718;73.040;2023-04-25T03:26:40;13.95;;;5.05;;
73331;SDS011;61560;33.718;73.040;2023-04-25T03:29:07;12.93;;;5.30;;
73331;SDS011;61560;33.718;73.040;2023-04-25T03:31:37;9.13;;;4.88;;
73331;SDS011;61560;33.718;73.040;2023-04-25T03:34:04;8.90;;;5.28;;
73331;SDS011;61560;33.718;73.040;2023-04-25T03:36:32;8.43;;;4.70;;
73331;SDS011;61560;33.718;73.040;2023-04-25T03:38:59;8.13;;;4.97;;
73331;SDS011;61560;33.718;73.040;2023-04-25T03:41:30;7.43;;;5.40;;
73331;SDS011;61560;33.718;73.040;2023-04-25T03:44:03;10.50;;;5.10;;
73331;SDS011;61560;33.718;73.040;2023-04-25T03:46:30;16.83;;;7.65;;
73331;SDS011;61560;33.718;73.040;2023-04-25T03:48:57;9.05;;;5.20;;
73331;SDS011;61560;33.718;73.040;2023-04-25T03:51:35;14.60;;;5.90;;
73331;SDS011;61560;33.718;73.040;2023-04-25T03:54:02;11.48;;;6.20;;
73331;SDS011;61560;33.718;73.040;2023-04-25T03:56:31;9.30;;;6.10;;
73331;SDS011;61560;33.718;73.040;2023-04-25T03:59:07;17.50;;;7.15;;
73331;SDS011;61560;33.718;73.040;2023-04-25T04:01:34;10.90;;;6.68;;
73331;SDS011;61560;33.718;73.040;2023-04-25T04:04:01;12.95;;;8.25;;
73331;SDS011;61560;33.718;73.040;2023-04-25T04:06:29;16.45;;;9.57;;
73331;SDS011;61560;33.718;73.040;2023-04-25T04:09:03;16.38;;;9.10;;
73331;SDS011;61560;33.718;73.040;2023-04-25T04:11:34;15.10;;;9.27;;
73331;SDS011;61560;33.718;73.040;2023-04-25T04:14:03;12.05;;;8.85;;
73331;SDS011;61560;33.718;73.040;2023-04-25T04:16:31;12.73;;;8.10;;
73331;SDS011;61560;33.718;73.040;2023-04-25T04:18:59;16.42;;;8.88;;
73331;SDS011;61560;33.718;73.040;2023-04-25T04:21:25;16.25;;;9.60;;
73331;SDS011;61560;33.718;73.040;2023-04-25T04:23:53;14.50;;;8.48;;
73331;SDS011;61560;33.718;73.040;2023-04-25T04:26:21;12.23;;;8.88;;
73331;SDS011;61560;33.718;73.040;2023-04-25T04:28:55;11.75;;;7.80;;
73331;SDS011;61560;33.718;73.040;2023-04-25T04:31:45;12.63;;;8.02;;
73331;SDS011;61560;33.718;73.040;2023-04-25T04:34:14;11.48;;;8.77;;
73331;SDS011;61560;33.718;73.040;2023-04-25T04:36:42;13.23;;;8.63;;
73331;SDS011;61560;33.718;73.040;2023-04-25T04:39:11;12.60;;;8.57;;
73331;SDS011;61560;33.718;73.040;2023-04-25T04:41:53;18.98;;;9.13;;
73331;SDS011;61560;33.718;73.040;2023-04-25T04:44:33;13.68;;;8.40;;
73331;SDS011;61560;33.718;73.040;2023-04-25T04:47:24;15.73;;;8.57;;
73331;SDS011;61560;33.718;73.040;2023-04-25T04:49:59;11.13;;;8.70;;
73331;SDS011;61560;33.718;73.040;2023-04-25T04:52:49;14.88;;;8.85;;
73331;SDS011;61560;33.718;73.040;2023-04-25T04:55:43;10.90;;;8.13;;
73331;SDS011;61560;33.718;73.040;2023-04-25T04:58:44;14.50;;;9.07;;
73331;SDS011;61560;33.718;73.040;2023-04-25T05:01:40;11.55;;;8.25;;
73331;SDS011;61560;33.718;73.040;2023-04-25T05:04:40;13.95;;;9.45;;
73331;SDS011;61560;33.718;73.040;2023-04-25T05:07:26;11.68;;;8.57;;
73331;SDS011;61560;33.718;73.040;2023-04-25T05:10:08;10.57;;;8.70;;
73331;SDS011;61560;33.718;73.040;2023-04-25T05:13:00;14.20;;;8.68;;
73331;SDS011;61560;33.718;73.040;2023-04-25T05:15:44;11.48;;;8.35;;
73331;SDS011;61560;33.718;73.040;2023-04-25T05:18:31;12.80;;;8.15;;
73331;SDS011;61560;33.718;73.040;2023-04-25T05:21:26;10.90;;;8.43;;
73331;SDS011;61560;33.718;73.040;2023-04-25T05:24:20;17.30;;;9.13;;
73331;SDS011;61560;33.718;73.040;2023-04-25T05:27:00;13.93;;;9.02;;
73331;SDS011;61560;33.718;73.040;2023-04-25T05:29:43;15.43;;;8.80;;
73331;SDS011;61560;33.718;73.040;2023-04-25T05:32:25;12.02;;;9.10;;
73331;SDS011;61560;33.718;73.040;2023-04-25T05:34:54;13.82;;;8.45;;
73331;SDS011;61560;33.718;73.040;2023-04-25T05:37:43;14.98;;;8.30;;
73331;SDS011;61560;33.718;73.040;2023-04-25T05:40:13;12.43;;;8.95;;
73331;SDS011;61560;33.718;73.040;2023-04-25T05:42:43;11.65;;;8.50;;
73331;SDS011;61560;33.718;73.040;2023-04-25T05:45:49;13.18;;;8.00;;
73331;SDS011;61560;33.718;73.040;2023-04-25T05:48:29;13.65;;;8.13;;
73331;SDS011;61560;33.718;73.040;2023-04-25T05:51:08;13.23;;;8.30;;
73331;SDS011;61560;33.718;73.040;2023-04-25T05:53:47;25.98;;;8.55;;
73331;SDS011;61560;33.718;73.040;2023-04-25T05:56:14;12.25;;;7.63;;
73331;SDS011;61560;33.718;73.040;2023-04-25T05:58:41;14.30;;;8.55;;
73331;SDS011;61560;33.718;73.040;2023-04-25T06:01:11;14.27;;;9.23;;
73331;SDS011;61560;33.718;73.040;2023-04-25T06:03:38;13.27;;;8.63;;
73331;SDS011;61560;33.718;73.040;2023-04-25T06:06:09;15.00;;;8.82;;
73331;SDS011;61560;33.718;73.040;2023-04-25T06:08:37;17.25;;;9.20;;
73331;SDS011;61560;33.718;73.040;2023-04-25T06:11:04;16.58;;;8.93;;
73331;SDS011;61560;33.718;73.040;2023-04-25T06:13:31;13.52;;;8.52;;
73331;SDS011;61560;33.718;73.040;2023-04-25T06:15:59;17.63;;;9.52;;
73331;SDS011;61560;33.718;73.040;2023-04-25T06:18:26;16.17;;;8.85;;
73331;SDS011;61560;33.718;73.040;2023-04-25T06:20:53;17.13;;;9.55;;
73331;SDS011;61560;33.718;73.040;2023-04-25T06:23:20;20.85;;;9.73;;
73331;SDS011;61560;33.718;73.040;2023-04-25T06:25:52;26.48;;;10.07;;
73331;SDS011;61560;33.718;73.040;2023-04-25T06:28:19;14.77;;;9.05;;
73331;SDS011;61560;33.718;73.040;2023-04-25T06:30:48;20.98;;;9.82;;
73331;SDS011;61560;33.718;73.040;2023-04-25T06:35:46;19.52;;;9.27;;
73331;SDS011;61560;33.718;73.040;2023-04-25T06:38:16;16.85;;;8.65;;
73331;SDS011;61560;33.718;73.040;2023-04-25T06:40:47;16.25;;;9.18;;
73331;SDS011;61560;33.718;73.040;2023-04-25T06:43:15;18.73;;;8.77;;
73331;SDS011;61560;33.718;73.040;2023-04-25T06:46:00;15.05;;;7.72;;
73331;SDS011;61560;33.718;73.040;2023-04-25T06:48:30;15.35;;;7.80;;
73331;SDS011;61560;33.718;73.040;2023-04-25T06:50:58;18.05;;;8.20;;
73331;SDS011;61560;33.718;73.040;2023-04-25T06:53:25;14.13;;;8.35;;
73331;SDS011;61560;33.718;73.040;2023-04-25T06:56:01;12.13;;;7.80;;
73331;SDS011;61560;33.718;73.040;2023-04-25T06:58:40;16.33;;;7.88;;
73331;SDS011;61560;33.718;73.040;2023-04-25T07:01:12;16.83;;;8.05;;
73331;SDS011;61560;33.718;73.040;2023-04-25T07:03:39;15.50;;;8.25;;
73331;SDS011;61560;33.718;73.040;2023-04-25T07:06:13;11.35;;;7.30;;
73331;SDS011;61560;33.718;73.040;2023-04-25T07:08:41;13.63;;;7.32;;
73331;SDS011;61560;33.718;73.040;2023-04-25T07:11:08;15.82;;;8.00;;
73331;SDS011;61560;33.718;73.040;2023-04-25T07:13:36;12.32;;;7.93;;
73331;SDS011;61560;33.718;73.040;2023-04-25T07:16:03;21.50;;;7.93;;
73331;SDS011;61560;33.718;73.040;2023-04-25T07:18:33;19.60;;;8.13;;
73331;SDS011;61560;33.718;73.040;2023-04-25T07:21:00;15.82;;;8.00;;
73331;SDS011;61560;33.718;73.040;2023-04-25T07:23:28;19.83;;;8.88;;
73331;SDS011;61560;33.718;73.040;2023-04-25T07:25:59;17.20;;;8.75;;
73331;SDS011;61560;33.718;73.040;2023-04-25T07:28:27;18.95;;;8.65;;
73331;SDS011;61560;33.718;73.040;2023-04-25T07:30:53;15.77;;;8.57;;
73331;SDS011;61560;33.718;73.040;2023-04-25T07:33:20;26.45;;;9.07;;
73331;SDS011;61560;33.718;73.040;2023-04-25T07:35:49;13.60;;;8.00;;
73331;SDS011;61560;33.718;73.040;2023-04-25T07:38:18;19.92;;;8.30;;
73331;SDS011;61560;33.718;73.040;2023-04-25T07:40:46;19.38;;;8.60;;
73331;SDS011;61560;33.718;73.040;2023-04-25T07:43:16;16.60;;;7.90;;
73331;SDS011;61560;33.718;73.040;2023-04-25T07:45:56;11.05;;;7.53;;
73331;SDS011;61560;33.718;73.040;2023-04-25T07:48:26;16.45;;;8.70;;
73331;SDS011;61560;33.718;73.040;2023-04-25T07:50:53;12.73;;;7.57;;
73331;SDS011;61560;33.718;73.040;2023-04-25T07:53:20;11.80;;;7.80;;
73331;SDS011;61560;33.718;73.040;2023-04-25T07:55:58;12.73;;;8.27;;
73331;SDS011;61560;33.718;73.040;2023-04-25T07:58:28;14.73;;;8.48;;
73331;SDS011;61560;33.718;73.040;2023-04-25T08:00:58;16.98;;;8.52;;
73331;SDS011;61560;33.718;73.040;2023-04-25T08:03:59;16.20;;;7.50;;
73331;SDS011;61560;33.718;73.040;2023-04-25T08:06:35;15.00;;;7.22;;
73331;SDS011;61560;33.718;73.040;2023-04-25T08:09:11;16.40;;;7.97;;
73331;SDS011;61560;33.718;73.040;2023-04-25T08:11:41;19.98;;;8.40;;
73331;SDS011;61560;33.718;73.040;2023-04-25T08:14:11;17.70;;;8.77;;
73331;SDS011;61560;33.718;73.040;2023-04-25T08:16:40;23.98;;;9.82;;
73331;SDS011;61560;33.718;73.040;2023-04-25T08:19:07;14.60;;;9.38;;
73331;SDS011;61560;33.718;73.040;2023-04-25T08:21:35;19.67;;;9.30;;
73331;SDS011;61560;33.718;73.040;2023-04-25T08:24:06;19.52;;;8.95;;
73331;SDS011;61560;33.718;73.040;2023-04-25T08:26:37;17.25;;;9.07;;
73331;SDS011;61560;33.718;73.040;2023-04-25T08:29:06;19.85;;;9.43;;
73331;SDS011;61560;33.718;73.040;2023-04-25T08:31:37;18.45;;;9.45;;
73331;SDS011;61560;33.718;73.040;2023-04-25T08:34:05;22.80;;;9.50;;
73331;SDS011;61560;33.718;73.040;2023-04-25T08:36:36;25.00;;;9.50;;
73331;SDS011;61560;33.718;73.040;2023-04-25T08:39:05;26.60;;;9.35;;
73331;SDS011;61560;33.718;73.040;2023-04-25T08:41:40;16.90;;;9.85;;
73331;SDS011;61560;33.718;73.040;2023-04-25T08:44:12;15.27;;;10.10;;
73331;SDS011;61560;33.718;73.040;2023-04-25T08:49:15;21.25;;;9.45;;
73331;SDS011;61560;33.718;73.040;2023-04-25T08:51:45;21.60;;;9.15;;
73331;SDS011;61560;33.718;73.040;2023-04-25T08:54:15;21.23;;;8.93;;
73331;SDS011;61560;33.718;73.040;2023-04-25T08:56:44;16.58;;;8.18;;
73331;SDS011;61560;33.718;73.040;2023-04-25T08:59:13;15.45;;;8.07;;
73331;SDS011;61560;33.718;73.040;2023-04-25T09:01:43;17.92;;;8.55;;
73331;SDS011;61560;33.718;73.040;2023-04-25T09:04:11;14.13;;;9.05;;
73331;SDS011;61560;33.718;73.040;2023-04-25T09:06:41;15.07;;;8.75;;
73331;SDS011;61560;33.718;73.040;2023-04-25T09:09:08;21.45;;;8.35;;
73331;SDS011;61560;33.718;73.040;2023-04-25T09:11:38;19.70;;;8.20;;
73331;SDS011;61560;33.718;73.040;2023-04-25T09:14:10;18.15;;;8.45;;
73331;SDS011;61560;33.718;73.040;2023-04-25T09:17:04;18.08;;;8.60;;
73331;SDS011;61560;33.718;73.040;2023-04-25T09:19:42;25.13;;;8.57;;
73331;SDS011;61560;33.718;73.040;2023-04-25T09:22:17;13.18;;;8.48;;
73331;SDS011;61560;33.718;73.040;2023-04-25T09:27:18;13.23;;;8.50;;
73331;SDS011;61560;33.718;73.040;2023-04-25T09:29:58;21.45;;;8.60;;
73331;SDS011;61560;33.718;73.040;2023-04-25T09:32:45;17.90;;;8.43;;
73331;SDS011;61560;33.718;73.040;2023-04-25T09:35:23;13.65;;;8.65;;
73331;SDS011;61560;33.718;73.040;2023-04-25T09:37:56;18.45;;;8.75;;
73331;SDS011;61560;33.718;73.040;2023-04-25T09:40:44;19.67;;;8.95;;
73331;SDS011;61560;33.718;73.040;2023-04-25T09:43:23;19.70;;;9.68;;
73331;SDS011;61560;33.718;73.040;2023-04-25T09:45:53;20.10;;;9.52;;
73331;SDS011;61560;33.718;73.040;2023-04-25T09:48:25;17.85;;;8.13;;
73331;SDS011;61560;33.718;73.040;2023-04-25T09:51:08;17.25;;;8.00;;
73331;SDS011;61560;33.718;73.040;2023-04-25T09:53:38;15.05;;;8.05;;
73331;SDS011;61560;33.718;73.040;2023-04-25T09:56:15;22.45;;;8.75;;
73331;SDS011;61560;33.718;73.040;2023-04-25T09:58:43;20.92;;;8.23;;
73331;SDS011;61560;33.718;73.040;2023-04-25T10:01:11;19.70;;;7.93;;
73331;SDS011;61560;33.718;73.040;2023-04-25T10:03:52;17.13;;;8.68;;
73331;SDS011;61560;33.718;73.040;2023-04-25T10:06:38;22.48;;;8.15;;
73331;SDS011;61560;33.718;73.040;2023-04-25T10:09:09;14.93;;;8.77;;
73331;SDS011;61560;33.718;73.040;2023-04-25T10:11:39;19.83;;;8.90;;
73331;SDS011;61560;33.718;73.040;2023-04-25T10:14:07;12.30;;;7.78;;
73331;SDS011;61560;33.718;73.040;2023-04-25T10:16:35;16.77;;;7.88;;
73331;SDS011;61560;33.718;73.040;2023-04-25T10:19:02;12.55;;;7.85;;
73331;SDS011;61560;33.718;73.040;2023-04-25T10:21:30;12.80;;;7.47;;
73331;SDS011;61560;33.718;73.040;2023-04-25T10:24:00;17.45;;;8.27;;
73331;SDS011;61560;33.718;73.040;2023-04-25T10:26:27;16.73;;;8.40;;
73331;SDS011;61560;33.718;73.040;2023-04-25T10:29:01;16.88;;;8.50;;
73331;SDS011;61560;33.718;73.040;2023-04-25T10:32:20;12.50;;;8.18;;
73331;SDS011;61560;33.718;73.040;2023-04-25T10:34:47;21.13;;;8.13;;
73331;SDS011;61560;33.718;73.040;2023-04-25T10:37:15;23.45;;;9.32;;
73331;SDS011;61560;33.718;73.040;2023-04-25T10:39:43;16.55;;;8.40;;
73331;SDS011;61560;33.718;73.040;2023-04-25T10:42:10;19.05;;;8.88;;
73331;SDS011;61560;33.718;73.040;2023-04-25T10:44:39;15.35;;;8.77;;
73331;SDS011;61560;33.718;73.040;2023-04-25T10:47:07;17.92;;;8.77;;
73331;SDS011;61560;33.718;73.040;2023-04-25T10:49:42;16.60;;;8.55;;
73331;SDS011;61560;33.718;73.040;2023-04-25T11:02:45;14.43;;;8.40;;
73331;SDS011;61560;33.718;73.040;2023-04-25T11:05:33;17.65;;;8.35;;
73331;SDS011;61560;33.718;73.040;2023-04-25T11:08:02;17.13;;;8.60;;
73331;SDS011;61560;33.718;73.040;2023-04-25T11:10:37;19.65;;;8.30;;
73331;SDS011;61560;33.718;73.040;2023-04-25T11:13:06;17.90;;;8.13;;
73331;SDS011;61560;33.718;73.040;2023-04-25T11:15:34;18.83;;;8.02;;
73331;SDS011;61560;33.718;73.040;2023-04-25T11:18:01;16.55;;;8.13;;
73331;SDS011;61560;33.718;73.040;2023-04-25T11:20:29;15.85;;;8.35;;
73331;SDS011;61560;33.718;73.040;2023-04-25T11:22:59;19.17;;;8.52;;
73331;SDS011;61560;33.718;73.040;2023-04-25T11:25:26;16.58;;;8.77;;
73331;SDS011;61560;33.718;73.040;2023-04-25T11:27:57;16.38;;;8.63;;
73331;SDS011;61560;33.718;73.040;2023-04-25T11:30:27;19.80;;;8.75;;
73331;SDS011;61560;33.718;73.040;2023-04-25T11:32:56;16.35;;;8.35;;
73331;SDS011;61560;33.718;73.040;2023-04-25T11:35:23;16.33;;;9.23;;
73331;SDS011;61560;33.718;73.040;2023-04-25T11:37:51;15.25;;;7.55;;
73331;SDS011;61560;33.718;73.040;2023-04-25T11:40:18;18.27;;;7.82;;
73331;SDS011;61560;33.718;73.040;2023-04-25T11:42:46;14.38;;;8.27;;
73331;SDS011;61560;33.718;73.040;2023-04-25T11:45:14;19.95;;;8.13;;
73331;SDS011;61560;33.718;73.040;2023-04-25T11:47:41;14.20;;;7.47;;
73331;SDS011;61560;33.718;73.040;2023-04-25T11:50:09;13.65;;;7.80;;
73331;SDS011;61560;33.718;73.040;2023-04-25T11:52:43;15.95;;;9.02;;
73331;SDS011;61560;33.718;73.040;2023-04-25T11:55:14;12.50;;;7.85;;
73331;SDS011;61560;33.718;73.040;2023-04-25T11:57:44;14.82;;;7.75;;
73331;SDS011;61560;33.718;73.040;2023-04-25T12:00:14;22.70;;;9.27;;
73331;SDS011;61560;33.718;73.040;2023-04-25T12:02:43;15.18;;;8.02;;
73331;SDS011;61560;33.718;73.040;2023-04-25T12:05:12;12.50;;;7.47;;
73331;SDS011;61560;33.718;73.040;2023-04-25T12:07:41;16.23;;;8.45;;
73331;SDS011;61560;33.718;73.040;2023-04-25T12:10:10;18.42;;;8.43;;
73331;SDS011;61560;33.718;73.040;2023-04-25T12:12:41;24.48;;;9.48;;
73331;SDS011;61560;33.718;73.040;2023-04-25T12:15:17;16.02;;;8.32;;
73331;SDS011;61560;33.718;73.040;2023-04-25T12:17:52;26.55;;;9.10;;
73331;SDS011;61560;33.718;73.040;2023-04-25T12:20:21;21.67;;;9.35;;
73331;SDS011;61560;33.718;73.040;2023-04-25T12:22:51;19.73;;;9.32;;
73331;SDS011;61560;33.718;73.040;2023-04-25T12:28:18;26.75;;;9.45;;
73331;SDS011;61560;33.718;73.040;2023-04-25T12:30:56;21.67;;;8.77;;
73331;SDS011;61560;33.718;73.040;2023-04-25T12:33:34;20.15;;;9.23;;
73331;SDS011;61560;33.718;73.040;2023-04-25T12:36:05;21.63;;;9.27;;
73331;SDS011;61560;33.718;73.040;2023-04-25T12:38:37;20.33;;;9.70;;
73331;SDS011;61560;33.718;73.040;2023-04-25T12:41:06;14.65;;;8.88;;
73331;SDS011;61560;33.718;73.040;2023-04-25T12:43:34;19.52;;;9.60;;
73331;SDS011;61560;33.718;73.040;2023-04-25T12:46:01;19.20;;;8.93;;
73331;SDS011;61560;33.718;73.040;2023-04-25T12:48:29;16.45;;;9.63;;
73331;SDS011;61560;33.718;73.040;2023-04-25T12:50:57;24.33;;;9.73;;
73331;SDS011;61560;33.718;73.040;2023-04-25T12:53:24;20.33;;;9.43;;
73331;SDS011;61560;33.718;73.040;2023-04-25T12:55:51;16.67;;;9.02;;
73331;SDS011;61560;33.718;73.040;2023-04-25T12:58:19;20.27;;;9.68;;
73331;SDS011;61560;33.718;73.040;2023-04-25T13:00:46;22.70;;;9.45;;
73331;SDS011;61560;33.718;73.040;2023-04-25T13:03:13;18.30;;;9.25;;
73331;SDS011;61560;33.718;73.040;2023-04-25T13:05:41;27.67;;;9.43;;
73331;SDS011;61560;33.718;73.040;2023-04-25T13:08:09;15.07;;;9.52;;
73331;SDS011;61560;33.718;73.040;2023-04-25T13:10:37;19.73;;;9.30;;
73331;SDS011;61560;33.718;73.040;2023-04-25T13:13:05;22.95;;;9.10;;
73331;SDS011;61560;33.718;73.040;2023-04-25T13:15:31;15.40;;;9.07;;
73331;SDS011;61560;33.718;73.040;2023-04-25T13:17:58;18.55;;;9.32;;
73331;SDS011;61560;33.718;73.040;2023-04-25T13:20:25;17.98;;;8.98;;
73331;SDS011;61560;33.718;73.040;2023-04-25T13:22:53;17.77;;;9.15;;
73331;SDS011;61560;33.718;73.040;2023-04-25T13:25:19;20.08;;;9.82;;
73331;SDS011;61560;33.718;73.040;2023-04-25T13:27:47;21.10;;;10.65;;
73331;SDS011;61560;33.718;73.040;2023-04-25T13:30:14;21.60;;;10.45;;
73331;SDS011;61560;33.718;73.040;2023-04-25T13:32:42;22.13;;;10.07;;
73331;SDS011;61560;33.718;73.040;2023-04-25T13:35:10;26.05;;;11.05;;
73331;SDS011;61560;33.718;73.040;2023-04-25T13:37:39;20.98;;;10.70;;
73331;SDS011;61560;33.718;73.040;2023-04-25T13:40:07;27.13;;;12.50;;
73331;SDS011;61560;33.718;73.040;2023-04-25T13:42:37;23.08;;;12.25;;
73331;SDS011;61560;33.718;73.040;2023-04-25T13:45:05;33.72;;;12.20;;
73331;SDS011;61560;33.718;73.040;2023-04-25T13:47:34;30.92;;;12.02;;
73331;SDS011;61560;33.718;73.040;2023-04-25T13:50:01;25.05;;;12.50;;
73331;SDS011;61560;33.718;73.040;2023-04-25T13:52:37;18.13;;;9.77;;
73331;SDS011;61560;33.718;73.040;2023-04-25T13:55:04;22.80;;;10.68;;
73331;SDS011;61560;33.718;73.040;2023-04-25T13:57:33;22.10;;;10.55;;
73331;SDS011;61560;33.718;73.040;2023-04-25T14:00:00;17.83;;;9.75;;
73331;SDS011;61560;33.718;73.040;2023-04-25T14:02:35;17.52;;;9.77;;
73331;SDS011;61560;33.718;73.040;2023-04-25T14:05:02;20.90;;;10.60;;
73331;SDS011;61560;33.718;73.040;2023-04-25T14:07:31;19.38;;;10.18;;
73331;SDS011;61560;33.718;73.040;2023-04-25T14:10:03;18.15;;;10.18;;
73331;SDS011;61560;33.718;73.040;2023-04-25T14:12:32;19.98;;;9.85;;
73331;SDS011;61560;33.718;73.040;2023-04-25T14:14:59;17.67;;;9.95;;
73331;SDS011;61560;33.718;73.040;2023-04-25T14:17:26;16.95;;;9.85;;
73331;SDS011;61560;33.718;73.040;2023-04-25T14:19:53;18.65;;;10.57;;
73331;SDS011;61560;33.718;73.040;2023-04-25T14:22:20;17.48;;;9.85;;
73331;SDS011;61560;33.718;73.040;2023-04-25T14:24:47;25.10;;;10.90;;
73331;SDS011;61560;33.718;73.040;2023-04-25T14:27:14;17.95;;;10.15;;
73331;SDS011;61560;33.718;73.040;2023-04-25T14:29:44;25.30;;;9.93;;
73331;SDS011;61560;33.718;73.040;2023-04-25T14:32:10;18.33;;;10.05;;
73331;SDS011;61560;33.718;73.040;2023-04-25T14:34:38;23.48;;;10.68;;
73331;SDS011;61560;33.718;73.040;2023-04-25T14:37:06;25.27;;;10.25;;
73331;SDS011;61560;33.718;73.040;2023-04-25T14:39:34;22.15;;;11.18;;
73331;SDS011;61560;33.718;73.040;2023-04-25T14:42:02;26.00;;;10.93;;
73331;SDS011;61560;33.718;73.040;2023-04-25T14:44:29;16.88;;;10.13;;
73331;SDS011;61560;33.718;73.040;2023-04-25T14:46:56;24.73;;;10.52;;
73331;SDS011;61560;33.718;73.040;2023-04-25T14:49:23;21.40;;;10.18;;
73331;SDS011;61560;33.718;73.040;2023-04-25T14:51:50;23.73;;;11.00;;
73331;SDS011;61560;33.718;73.040;2023-04-25T14:54:18;17.25;;;9.93;;
73331;SDS011;61560;33.718;73.040;2023-04-25T14:56:45;23.52;;;10.52;;
73331;SDS011;61560;33.718;73.040;2023-04-25T14:59:12;25.33;;;11.20;;
73331;SDS011;61560;33.718;73.040;2023-04-25T15:01:39;29.67;;;12.48;;
73331;SDS011;61560;33.718;73.040;2023-04-25T15:04:06;24.83;;;11.35;;
73331;SDS011;61560;33.718;73.040;2023-04-25T15:06:33;25.80;;;10.98;;